Time;durP1;ratioP1;P1;durP2;ratioP2;P2;SDS_P1;SDS_P2;PMS_P1;PMS_P2;Temp;Humidity;BMP_temperature;BMP_pressure;BME280_temperature;BME280_humidity;BME280_pressure;Samples;Min_cycle;Max_cycle;Signal;HPM_P1;HPM_P2
2023/08/25 00:01:31;;;;;;;9.77;3.17;;;20.40;99.90;;;;;;5034988;28;20925;-67
2023/08/25 00:04:00;;;;;;;8.70;3.13;;;20.50;99.90;;;;;;5032395;28;20531;-67
2023/08/25 00:06:27;;;;;;;9.73;3.20;;;20.60;99.90;;;;;;5032109;28;20468;-67
2023/08/25 00:08:55;;;;;;;9.37;3.40;;;20.70;99.90;;;;;;5032268;28;20522;-66
2023/08/25 00:11:23;;;;;;;9.30;3.47;;;20.70;99.90;;;;;;5031979;28;20831;-67
2023/08/25 00:13:53;;;;;;;8.97;3.40;;;20.70;99.90;;;;;;5034919;28;20522;-67
2023/08/25 00:16:21;;;;;;;10.33;3.67;;;20.70;99.90;;;;;;5052367;28;20546;-67
2023/08/25 00:18:49;;;;;;;9.40;3.20;;;20.70;99.90;;;;;;5052230;28;20513;-66
2023/08/25 00:21:17;;;;;;;7.90;2.97;;;20.60;99.90;;;;;;5052602;28;20440;-66
2023/08/25 00:23:45;;;;;;;9.47;2.83;;;20.70;99.90;;;;;;5051435;28;20474;-67
2023/08/25 00:26:13;;;;;;;10.13;3.53;;;20.70;99.90;;;;;;5052241;28;20510;-67
2023/08/25 00:28:41;;;;;;;9.20;2.60;;;20.80;99.90;;;;;;5051822;28;20440;-66
2023/08/25 00:31:10;;;;;;;8.60;2.93;;;20.90;99.90;;;;;;5052217;28;20448;-67
2023/08/25 00:33:48;;;;;;;9.70;3.43;;;20.90;99.90;;;;;;5052227;28;20475;-67
2023/08/25 00:36:16;;;;;;;8.27;2.50;;;20.90;99.90;;;;;;5052012;28;20467;-68
2023/08/25 00:38:44;;;;;;;8.13;3.17;;;21.00;99.90;;;;;;5051640;28;20456;-67
2023/08/25 00:41:12;;;;;;;7.80;3.27;;;21.00;99.90;;;;;;5052006;28;20440;-67
2023/08/25 00:43:40;;;;;;;10.07;3.50;;;21.00;99.90;;;;;;5051811;28;20444;-67
2023/08/25 00:46:10;;;;;;;9.17;3.20;;;21.00;99.90;;;;;;5048236;28;21188;-67
2023/08/25 00:48:39;;;;;;;9.07;3.13;;;21.00;99.90;;;;;;5032099;28;21130;-66
2023/08/25 00:51:08;;;;;;;8.13;2.97;;;21.10;99.90;;;;;;5032033;28;20447;-67
2023/08/25 00:53:38;;;;;;;9.83;2.90;;;21.00;99.90;;;;;;5031194;28;20455;-67
2023/08/25 00:56:06;;;;;;;9.57;2.90;;;21.00;99.90;;;;;;5032026;28;20493;-67
2023/08/25 00:58:35;;;;;;;10.37;3.23;;;21.00;99.90;;;;;;5031639;28;20491;-67
2023/08/25 01:01:05;;;;;;;9.13;2.50;;;21.00;99.90;;;;;;5031991;28;20873;-67
2023/08/25 01:03:38;;;;;;;8.60;2.90;;;21.00;99.90;;;;;;5032278;28;20441;-67
2023/08/25 01:06:06;;;;;;;10.40;3.13;;;20.90;99.90;;;;;;5031843;28;20496;-66
2023/08/25 01:08:34;;;;;;;9.03;2.87;;;20.90;99.90;;;;;;5031764;28;20500;-66
2023/08/25 01:11:15;;;;;;;9.87;3.00;;;20.80;99.90;;;;;;5031580;28;20441;-67
2023/08/25 01:13:50;;;;;;;8.70;3.10;;;20.80;99.90;;;;;;5031526;28;20437;-66
2023/08/25 01:16:22;;;;;;;7.63;2.70;;;20.80;99.90;;;;;;5031348;28;20477;-66
2023/08/25 01:18:52;;;;;;;8.20;3.13;;;20.90;99.90;;;;;;5031570;28;20536;-67
2023/08/25 01:21:21;;;;;;;7.70;3.10;;;21.00;99.90;;;;;;5031577;28;20830;-66
2023/08/25 01:23:57;;;;;;;8.37;2.83;;;21.00;99.90;;;;;;5031012;28;20455;-67
2023/08/25 01:26:28;;;;;;;12.13;3.00;;;21.10;99.90;;;;;;5030848;28;20555;-67
2023/08/25 01:28:56;;;;;;;8.37;2.90;;;21.10;99.90;;;;;;5031260;28;20936;-68
2023/08/25 01:31:24;;;;;;;8.50;2.63;;;21.20;99.90;;;;;;5032458;28;20460;-67
2023/08/25 01:33:53;;;;;;;8.67;3.03;;;21.20;99.90;;;;;;5030633;28;20467;-67
2023/08/25 01:36:29;;;;;;;8.63;2.80;;;21.30;99.90;;;;;;5031186;28;20494;-67
2023/08/25 01:39:03;;;;;;;8.20;2.83;;;21.30;99.90;;;;;;5030877;28;20519;-67
2023/08/25 01:41:41;;;;;;;8.03;3.00;;;21.40;99.90;;;;;;5031976;28;20963;-66
2023/08/25 01:44:12;;;;;;;8.20;2.67;;;21.40;99.90;;;;;;5042962;28;21141;-67
2023/08/25 01:46:43;;;;;;;9.90;2.97;;;21.30;99.90;;;;;;5048177;28;20456;-67
2023/08/25 01:49:13;;;;;;;8.13;2.97;;;21.40;99.90;;;;;;5049099;28;20527;-67
2023/08/25 01:51:42;;;;;;;8.27;3.03;;;21.50;99.90;;;;;;5050022;28;20839;-67
2023/08/25 01:54:10;;;;;;;8.07;2.90;;;21.40;99.90;;;;;;5049054;28;20490;-67
2023/08/25 01:56:39;;;;;;;8.57;3.23;;;21.50;99.90;;;;;;5045891;28;20471;-67
2023/08/25 01:59:07;;;;;;;8.57;3.10;;;21.50;99.90;;;;;;5048922;28;20444;-68
2023/08/25 02:01:35;;;;;;;9.67;3.63;;;21.50;99.90;;;;;;5049770;28;20450;-68
2023/08/25 02:04:03;;;;;;;8.47;2.80;;;21.50;99.90;;;;;;5048974;28;20482;-68
2023/08/25 02:06:31;;;;;;;7.80;2.90;;;21.50;99.90;;;;;;5050204;28;20467;-67
2023/08/25 02:08:59;;;;;;;9.80;3.23;;;21.50;99.90;;;;;;5050478;28;20452;-68
2023/08/25 02:11:27;;;;;;;9.73;2.90;;;21.40;99.90;;;;;;5050354;28;20439;-68
2023/08/25 02:13:57;;;;;;;10.03;2.80;;;21.40;99.90;;;;;;5049668;28;20440;-67
2023/08/25 02:16:25;;;;;;;9.73;2.80;;;21.40;99.90;;;;;;5050328;28;20515;-68
2023/08/25 02:18:53;;;;;;;9.60;3.27;;;21.40;99.90;;;;;;5049994;28;20464;-67
2023/08/25 02:21:21;;;;;;;8.40;3.00;;;21.30;99.90;;;;;;5038764;28;20900;-68
2023/08/25 02:23:49;;;;;;;10.03;3.17;;;21.30;99.90;;;;;;5029899;28;20473;-68
2023/08/25 02:26:17;;;;;;;8.37;3.23;;;21.40;99.90;;;;;;5030289;28;20469;-68
2023/08/25 02:28:45;;;;;;;7.77;3.07;;;21.40;99.90;;;;;;5030178;28;20488;-67
2023/08/25 02:31:14;;;;;;;8.53;3.20;;;21.30;99.90;;;;;;5030075;28;21022;-68
2023/08/25 02:33:42;;;;;;;8.30;3.23;;;21.30;99.90;;;;;;5029959;28;20441;-67
2023/08/25 02:36:10;;;;;;;8.47;3.43;;;21.30;99.90;;;;;;5030706;28;20485;-68
2023/08/25 02:38:38;;;;;;;9.50;3.10;;;21.20;99.90;;;;;;5030256;28;20430;-67
2023/08/25 02:41:06;;;;;;;8.70;3.00;;;21.30;99.90;;;;;;5029754;28;20443;-67
2023/08/25 02:43:34;;;;;;;9.10;3.43;;;21.20;99.90;;;;;;5029783;28;20536;-68
2023/08/25 02:46:02;;;;;;;8.67;3.30;;;21.30;99.90;;;;;;5029443;28;20459;-68
2023/08/25 02:48:31;;;;;;;9.90;4.40;;;21.40;99.90;;;;;;5030029;28;20530;-67
2023/08/25 02:50:59;;;;;;;8.30;3.27;;;21.40;99.90;;;;;;5042171;28;20454;-68
2023/08/25 02:53:27;;;;;;;9.77;3.50;;;21.20;99.90;;;;;;5049156;28;20447;-67
2023/08/25 02:55:55;;;;;;;8.80;4.10;;;21.20;99.90;;;;;;5049777;28;20486;-67
2023/08/25 02:58:23;;;;;;;8.20;3.00;;;21.20;99.90;;;;;;5049408;28;20459;-68
2023/08/25 03:00:51;;;;;;;7.97;2.93;;;21.10;99.90;;;;;;5050232;28;20828;-67
2023/08/25 03:03:19;;;;;;;11.03;4.60;;;21.20;99.90;;;;;;5049129;28;20444;-67
2023/08/25 03:05:49;;;;;;;8.47;3.03;;;21.20;99.90;;;;;;5049040;28;21049;-67
2023/08/25 03:08:20;;;;;;;8.90;3.17;;;21.20;99.90;;;;;;5052112;28;20443;-67
2023/08/25 03:10:47;;;;;;;11.77;3.57;;;21.20;99.90;;;;;;5053990;28;20448;-67
2023/08/25 03:13:15;;;;;;;10.33;3.13;;;21.10;99.90;;;;;;5053833;28;20444;-68
2023/08/25 03:15:54;;;;;;;8.53;2.90;;;20.90;99.90;;;;;;5053385;28;21002;-66
2023/08/25 03:18:22;;;;;;;10.40;3.87;;;20.70;99.90;;;;;;5053662;28;20443;-68
2023/08/25 03:20:52;;;;;;;10.10;3.50;;;20.50;99.90;;;;;;5046848;28;20453;-68
2023/08/25 03:23:20;;;;;;;8.30;3.23;;;20.30;99.90;;;;;;5035422;28;20440;-67
2023/08/25 03:25:48;;;;;;;9.10;3.70;;;20.20;99.90;;;;;;5035569;28;20526;-67
2023/08/25 03:28:16;;;;;;;9.97;4.00;;;20.10;99.90;;;;;;5035413;28;20975;-67
2023/08/25 03:30:44;;;;;;;9.63;3.40;;;20.10;99.90;;;;;;5035982;28;20540;-68
2023/08/25 03:33:12;;;;;;;12.13;4.50;;;20.10;99.90;;;;;;5034961;28;20468;-66
2023/08/25 03:35:40;;;;;;;8.83;3.30;;;20.00;99.90;;;;;;5035154;28;20580;-67
2023/08/25 03:38:09;;;;;;;10.00;3.63;;;19.90;99.90;;;;;;5035064;28;20503;-67
2023/08/25 03:40:37;;;;;;;10.03;3.80;;;19.90;99.90;;;;;;5034600;28;20451;-68
2023/08/25 03:43:05;;;;;;;9.20;3.80;;;19.90;99.90;;;;;;5033412;28;20543;-68
2023/08/25 03:45:35;;;;;;;10.87;3.90;;;19.90;99.90;;;;;;5033785;28;20463;-67
2023/08/25 03:48:04;;;;;;;8.80;3.77;;;19.80;99.90;;;;;;5033723;28;20445;-65
2023/08/25 03:50:32;;;;;;;10.53;3.70;;;19.70;99.90;;;;;;5039204;28;20935;-67
2023/08/25 03:53:00;;;;;;;8.70;3.90;;;19.70;99.90;;;;;;5052598;28;20440;-67
2023/08/25 03:55:29;;;;;;;9.00;3.90;;;19.70;99.90;;;;;;5048963;28;20472;-68
2023/08/25 03:57:57;;;;;;;9.17;4.00;;;19.60;99.90;;;;;;5046963;28;20452;-67
2023/08/25 04:00:25;;;;;;;10.37;4.67;;;19.60;99.90;;;;;;5052367;28;20470;-67
2023/08/25 04:02:52;;;;;;;12.00;3.80;;;19.60;99.90;;;;;;5051961;28;20535;-67
2023/08/25 04:05:20;;;;;;;9.70;3.70;;;19.60;99.90;;;;;;5052098;28;20451;-67
2023/08/25 04:07:49;;;;;;;9.77;3.50;;;19.60;99.90;;;;;;5052471;28;20572;-68
2023/08/25 04:10:17;;;;;;;9.53;3.83;;;19.60;99.90;;;;;;5046796;28;20530;-67
2023/08/25 04:12:46;;;;;;;12.60;4.93;;;19.60;99.90;;;;;;5052043;28;20464;-67
2023/08/25 04:15:14;;;;;;;9.77;3.50;;;19.50;99.90;;;;;;5051980;28;20475;-67
2023/08/25 04:17:42;;;;;;;9.50;3.60;;;19.50;99.90;;;;;;5051917;28;20474;-67
2023/08/25 04:20:11;;;;;;;10.87;3.50;;;19.60;99.90;;;;;;5052025;28;20436;-67
2023/08/25 04:22:41;;;;;;;9.00;3.33;;;19.70;99.90;;;;;;5052358;28;20444;-68
2023/08/25 04:25:09;;;;;;;10.93;4.97;;;19.70;99.90;;;;;;5052118;28;20459;-66
2023/08/25 04:27:37;;;;;;;9.00;3.60;;;19.90;99.90;;;;;;5043363;28;20530;-65
2023/08/25 04:30:08;;;;;;;9.70;3.93;;;20.00;99.90;;;;;;5032188;28;20452;-68
2023/08/25 04:32:36;;;;;;;10.63;3.40;;;20.00;99.90;;;;;;5032428;28;20449;-67
2023/08/25 04:35:04;;;;;;;10.30;4.30;;;20.10;99.90;;;;;;5032100;28;20480;-68
2023/08/25 04:37:32;;;;;;;8.83;3.40;;;20.10;99.90;;;;;;5032361;28;20512;-67
2023/08/25 04:40:00;;;;;;;9.97;3.67;;;20.00;99.90;;;;;;5032254;28;20443;-67
2023/08/25 04:42:28;;;;;;;11.37;3.90;;;19.90;99.90;;;;;;5047741;28;20871;-68
2023/08/25 04:44:56;;;;;;;11.57;4.00;;;19.90;99.90;;;;;;5052083;28;20954;-67
2023/08/25 04:47:25;;;;;;;13.23;3.90;;;19.70;99.90;;;;;;5051519;28;21017;-67
2023/08/25 04:49:57;;;;;;;10.50;4.20;;;19.80;99.90;;;;;;5051970;28;20444;-67
2023/08/25 04:52:25;;;;;;;9.03;4.80;;;19.90;99.90;;;;;;5051370;28;20440;-66
2023/08/25 04:54:53;;;;;;;9.37;3.50;;;19.90;99.90;;;;;;5052309;28;20510;-67
2023/08/25 04:57:21;;;;;;;9.53;4.00;;;19.80;99.90;;;;;;5046324;28;20484;-68
2023/08/25 04:59:49;;;;;;;9.20;3.67;;;19.80;99.90;;;;;;5032495;28;20455;-68
2023/08/25 05:02:17;;;;;;;10.53;5.27;;;19.70;99.90;;;;;;5031878;28;20544;-68
2023/08/25 05:04:47;;;;;;;8.63;4.07;;;19.70;99.90;;;;;;5031598;28;20467;-69
2023/08/25 05:07:14;;;;;;;10.10;3.90;;;19.70;99.90;;;;;;5031930;28;20458;-67
2023/08/25 05:09:43;;;;;;;9.67;3.73;;;19.70;99.90;;;;;;5031301;28;20463;-67
2023/08/25 05:12:11;;;;;;;9.80;4.40;;;19.80;99.90;;;;;;5031835;28;20445;-68
2023/08/25 05:14:39;;;;;;;9.50;4.23;;;19.80;99.90;;;;;;5032367;28;20460;-68
2023/08/25 05:17:07;;;;;;;10.20;4.20;;;19.90;99.90;;;;;;5031661;28;20480;-68
2023/08/25 05:19:35;;;;;;;10.40;4.20;;;19.80;99.90;;;;;;5047371;28;20523;-68
2023/08/25 05:22:05;;;;;;;9.60;4.50;;;19.90;99.90;;;;;;5051365;28;20447;-67
2023/08/25 05:24:33;;;;;;;10.10;4.10;;;20.10;99.90;;;;;;5051086;28;20509;-68
2023/08/25 05:27:01;;;;;;;9.17;3.50;;;20.30;99.90;;;;;;5051173;28;20456;-67
2023/08/25 05:29:29;;;;;;;9.83;3.57;;;20.50;99.90;;;;;;5050513;28;20443;-68
2023/08/25 05:31:57;;;;;;;10.90;3.73;;;20.60;99.90;;;;;;5030552;28;20532;-68
2023/08/25 05:34:27;;;;;;;11.27;3.90;;;20.70;99.90;;;;;;5031386;28;20449;-67
2023/08/25 05:36:55;;;;;;;10.07;4.00;;;20.90;99.90;;;;;;5031443;28;20523;-68
2023/08/25 05:39:24;;;;;;;11.23;3.80;;;21.10;99.90;;;;;;5031333;28;20449;-68
2023/08/25 05:41:52;;;;;;;9.70;3.30;;;21.30;99.90;;;;;;5031268;28;20843;-68
2023/08/25 05:44:20;;;;;;;11.00;3.90;;;21.60;99.90;;;;;;5030601;28;20498;-68
2023/08/25 05:46:48;;;;;;;9.00;3.37;;;21.80;99.90;;;;;;5039201;28;20832;-68
2023/08/25 05:49:16;;;;;;;8.63;3.70;;;21.90;99.90;;;;;;5050547;28;20517;-67
2023/08/25 05:51:45;;;;;;;9.50;3.90;;;22.00;99.90;;;;;;5034182;28;20508;-68
2023/08/25 05:54:13;;;;;;;8.07;3.57;;;22.10;99.90;;;;;;5030545;28;20441;-69
2023/08/25 05:56:43;;;;;;;12.77;4.20;;;22.10;99.90;;;;;;5030260;28;20477;-68
2023/08/25 05:59:11;;;;;;;11.80;3.80;;;22.10;99.90;;;;;;5030824;28;20444;-68
2023/08/25 06:01:40;;;;;;;11.40;3.63;;;22.20;99.90;;;;;;5030147;28;20453;-68
2023/08/25 06:04:08;;;;;;;8.90;3.80;;;22.20;99.90;;;;;;5033695;28;20448;-68
2023/08/25 06:06:38;;;;;;;11.30;4.50;;;22.30;99.90;;;;;;5050492;28;20555;-68
2023/08/25 06:09:08;;;;;;;10.00;4.30;;;22.30;99.90;;;;;;5050621;28;20542;-67
2023/08/25 06:11:36;;;;;;;10.30;3.87;;;22.40;99.90;;;;;;5050653;28;20440;-68
2023/08/25 06:14:06;;;;;;;10.30;3.50;;;22.40;99.90;;;;;;5050148;28;20448;-68
2023/08/25 06:16:34;;;;;;;10.10;3.70;;;22.40;99.90;;;;;;5050544;28;20478;-67
2023/08/25 06:19:02;;;;;;;10.33;3.87;;;22.20;99.90;;;;;;5050336;28;20467;-67
2023/08/25 06:21:30;;;;;;;8.50;3.73;;;22.00;99.90;;;;;;5039998;28;20548;-68
2023/08/25 06:23:58;;;;;;;11.50;3.70;;;21.80;99.90;;;;;;5030314;28;20495;-68
2023/08/25 06:26:26;;;;;;;9.43;3.27;;;21.70;99.90;;;;;;5030317;28;20832;-65
2023/08/25 06:28:56;;;;;;;10.40;3.50;;;21.80;99.90;;;;;;5030166;28;20448;-67
2023/08/25 06:31:29;;;;;;;12.43;4.03;;;21.80;99.90;;;;;;5030851;28;20477;-68
2023/08/25 06:33:57;;;;;;;9.13;3.60;;;21.80;99.90;;;;;;5030191;28;20433;-68
2023/08/25 06:36:25;;;;;;;10.90;3.70;;;21.90;99.90;;;;;;5030532;28;20890;-68
2023/08/25 06:38:56;;;;;;;11.60;3.53;;;21.80;99.90;;;;;;5031866;28;20560;-68
2023/08/25 06:41:24;;;;;;;10.33;3.87;;;21.80;99.90;;;;;;5029810;28;21015;-68
2023/08/25 06:43:53;;;;;;;11.10;4.33;;;21.70;99.90;;;;;;5029858;28;20449;-68
2023/08/25 06:46:21;;;;;;;12.03;4.13;;;21.70;99.90;;;;;;5030184;28;20492;-67
2023/08/25 06:48:50;;;;;;;11.27;5.40;;;21.70;99.90;;;;;;5039019;28;20501;-67
2023/08/25 06:51:18;;;;;;;14.50;4.50;;;21.70;99.90;;;;;;5050199;28;20440;-67
2023/08/25 06:53:46;;;;;;;10.80;4.80;;;21.60;99.90;;;;;;5048326;28;20445;-68
2023/08/25 06:56:14;;;;;;;12.93;4.57;;;21.50;99.90;;;;;;5050383;28;20468;-68
2023/08/25 06:58:43;;;;;;;11.30;4.20;;;21.30;99.90;;;;;;5051348;28;20479;-67
2023/08/25 07:01:11;;;;;;;11.03;4.93;;;21.10;99.90;;;;;;5050479;28;20526;-67
2023/08/25 07:03:39;;;;;;;9.90;5.00;;;20.90;99.90;;;;;;5049291;28;20825;-67
2023/08/25 07:06:08;;;;;;;11.00;4.40;;;20.70;99.90;;;;;;5050533;28;20462;-66
2023/08/25 07:08:37;;;;;;;11.87;5.67;;;20.50;99.90;;;;;;5049915;28;20484;-68
2023/08/25 07:11:05;;;;;;;11.77;5.17;;;20.30;99.90;;;;;;5050205;28;20882;-67
2023/08/25 07:13:33;;;;;;;11.27;5.00;;;20.10;99.90;;;;;;5049320;28;20942;-67
2023/08/25 07:16:03;;;;;;;11.30;5.33;;;20.10;99.90;;;;;;5049472;28;20831;-67
2023/08/25 07:18:31;;;;;;;10.73;5.60;;;20.10;99.90;;;;;;5048124;28;20495;-67
2023/08/25 07:21:04;;;;;;;12.27;6.03;;;20.00;99.90;;;;;;5049435;28;20530;-66
2023/08/25 07:23:33;;;;;;;12.30;5.97;;;19.90;99.90;;;;;;5048961;28;20872;-68
2023/08/25 07:26:01;;;;;;;12.30;6.40;;;19.80;99.90;;;;;;5049326;28;20471;-68
2023/08/25 07:28:29;;;;;;;13.77;6.57;;;19.80;99.90;;;;;;5050128;28;20473;-71
2023/08/25 07:30:59;;;;;;;13.27;6.50;;;19.80;99.90;;;;;;5050243;28;20454;-66
2023/08/25 07:33:27;;;;;;;15.53;6.90;;;19.80;99.90;;;;;;5049080;28;20443;-67
2023/08/25 07:35:55;;;;;;;12.43;6.37;;;19.80;99.90;;;;;;5048324;28;20525;-67
2023/08/25 07:38:23;;;;;;;15.03;6.57;;;19.90;99.90;;;;;;5049620;28;20483;-67
2023/08/25 07:40:53;;;;;;;14.03;6.63;;;19.90;99.90;;;;;;5050289;28;20436;-67
2023/08/25 07:43:20;;;;;;;13.53;6.93;;;19.90;99.90;;;;;;5049155;28;20501;-68
2023/08/25 07:45:49;;;;;;;11.67;6.50;;;19.90;99.90;;;;;;5049968;28;20913;-66
2023/08/25 07:48:16;;;;;;;13.30;6.87;;;20.00;99.90;;;;;;5047288;28;20444;-66
2023/08/25 07:50:44;;;;;;;12.27;6.67;;;19.90;99.90;;;;;;5046893;28;20460;-67
2023/08/25 07:53:14;;;;;;;12.83;5.80;;;19.90;99.90;;;;;;5049298;28;20574;-67
2023/08/25 07:55:42;;;;;;;11.73;5.23;;;20.00;99.90;;;;;;5052707;28;20443;-67
2023/08/25 07:58:12;;;;;;;17.23;7.63;;;19.90;99.90;;;;;;5052764;28;20468;-68
2023/08/25 08:00:40;;;;;;;11.48;6.22;;;19.80;99.90;;;;;;5048027;28;20414;-67
2023/08/25 08:03:08;;;;;;;14.63;7.10;;;19.80;99.90;;;;;;5052382;28;20201;-69
2023/08/25 08:05:38;;;;;;;12.60;6.93;;;19.80;99.90;;;;;;5038191;28;20815;-67
2023/08/25 08:08:06;;;;;;;11.60;5.60;;;19.80;99.90;;;;;;5032754;28;20468;-67
2023/08/25 08:10:34;;;;;;;15.00;6.33;;;19.80;99.90;;;;;;5032834;28;20452;-74
2023/08/25 08:13:03;;;;;;;11.77;5.87;;;19.90;99.90;;;;;;5031796;28;20444;-67
2023/08/25 08:15:32;;;;;;;12.03;5.83;;;19.80;99.90;;;;;;5032720;28;20444;-67
2023/08/25 08:18:00;;;;;;;12.97;6.07;;;19.80;99.90;;;;;;5046892;28;21048;-67
2023/08/25 08:20:28;;;;;;;18.60;5.97;;;19.70;99.90;;;;;;5051975;28;20505;-68
2023/08/25 08:22:56;;;;;;;10.90;5.67;;;19.70;99.90;;;;;;5041818;28;20448;-65
2023/08/25 08:25:25;;;;;;;11.73;4.77;;;19.70;99.90;;;;;;5049095;28;20539;-67
2023/08/25 08:27:53;;;;;;;14.20;4.87;;;19.80;99.90;;;;;;5051987;28;20493;-67
2023/08/25 08:30:22;;;;;;;10.50;5.07;;;19.80;99.90;;;;;;5051911;28;20471;-65
2023/08/25 08:32:51;;;;;;;9.47;4.73;;;19.70;99.90;;;;;;5051664;28;20459;-67
2023/08/25 08:35:19;;;;;;;12.03;5.20;;;19.70;99.90;;;;;;5052444;28;20444;-67
2023/08/25 08:37:47;;;;;;;10.90;4.47;;;19.70;99.90;;;;;;5045101;28;20476;-67
2023/08/25 08:40:15;;;;;;;13.07;5.00;;;19.70;99.90;;;;;;5052112;28;20444;-67
2023/08/25 08:42:46;;;;;;;12.03;4.70;;;19.70;99.90;;;;;;5052119;28;20444;-68
2023/08/25 08:45:16;;;;;;;16.27;5.30;;;19.70;99.90;;;;;;5052888;28;20441;-66
2023/08/25 08:47:44;;;;;;;15.20;5.90;;;19.70;99.90;;;;;;5049026;28;20506;-68
2023/08/25 08:50:14;;;;;;;10.60;4.30;;;19.70;99.90;;;;;;5046719;28;20954;-67
2023/08/25 08:52:42;;;;;;;22.03;5.40;;;19.70;99.90;;;;;;5040092;28;20464;-67
2023/08/25 08:55:10;;;;;;;11.87;4.80;;;19.80;99.90;;;;;;5058048;28;20506;-67
2023/08/25 08:57:38;;;;;;;13.40;4.83;;;19.90;99.90;;;;;;5048862;28;20470;-66
2023/08/25 09:00:10;;;;;;;12.07;5.10;;;19.90;99.90;;;;;;5052041;28;20547;-65
2023/08/25 09:02:38;;;;;;;14.20;5.90;;;19.90;99.90;;;;;;5051832;28;20440;-66
2023/08/25 09:05:07;;;;;;;12.80;5.90;;;19.90;99.90;;;;;;5044423;28;20454;-66
2023/08/25 09:07:38;;;;;;;13.67;5.43;;;19.90;99.90;;;;;;5047615;28;20542;-67
2023/08/25 09:10:07;;;;;;;13.10;5.70;;;20.00;99.90;;;;;;5050748;28;20498;-67
2023/08/25 09:12:36;;;;;;;10.67;5.20;;;20.10;99.90;;;;;;5048087;28;20440;-69
2023/08/25 09:15:08;;;;;;;11.40;4.90;;;20.20;99.90;;;;;;5044604;28;20448;-67
2023/08/25 09:17:37;;;;;;;10.30;5.10;;;20.40;99.90;;;;;;5043137;28;20472;-67
2023/08/25 09:20:08;;;;;;;11.20;4.80;;;20.40;99.90;;;;;;5051198;28;20468;-67
2023/08/25 09:22:37;;;;;;;10.23;4.47;;;20.50;99.90;;;;;;5037930;28;20539;-67
2023/08/25 09:25:06;;;;;;;11.20;3.70;;;20.60;99.90;;;;;;5037306;28;20436;-67
2023/08/25 09:27:35;;;;;;;11.20;4.53;;;20.60;99.90;;;;;;5046758;28;20467;-66
2023/08/25 09:30:06;;;;;;;10.53;5.20;;;20.70;99.90;;;;;;5042990;28;20455;-65
2023/08/25 09:32:35;;;;;;;12.33;5.80;;;20.80;99.90;;;;;;5045630;28;20464;-68
2023/08/25 09:35:14;;;;;;;11.10;5.00;;;20.90;99.90;;;;;;5050344;28;20436;-66
2023/08/25 09:37:45;;;;;;;11.57;5.23;;;20.90;99.90;;;;;;5051158;28;20464;-67
2023/08/25 09:40:13;;;;;;;10.50;4.90;;;21.10;99.90;;;;;;5050959;28;20480;-67
2023/08/25 09:42:41;;;;;;;14.53;5.20;;;21.40;99.90;;;;;;5050648;28;20445;-66
2023/08/25 09:45:10;;;;;;;9.87;4.10;;;21.40;99.90;;;;;;5050147;28;20448;-67
2023/08/25 09:47:38;;;;;;;9.37;4.00;;;21.60;99.90;;;;;;5050821;28;20463;-67
2023/08/25 09:50:07;;;;;;;9.60;4.40;;;21.70;99.90;;;;;;5047678;28;20520;-67
2023/08/25 09:52:39;;;;;;;9.37;3.90;;;21.60;99.90;;;;;;5030706;28;20539;-66
2023/08/25 09:55:10;;;;;;;12.53;4.43;;;21.60;99.90;;;;;;5030770;28;20532;-67
2023/08/25 09:57:38;;;;;;;10.10;4.40;;;21.50;99.90;;;;;;5030831;28;20457;-66
2023/08/25 10:00:08;;;;;;;10.43;4.40;;;21.70;99.90;;;;;;5030774;28;20483;-67
2023/08/25 10:02:36;;;;;;;9.53;3.90;;;21.80;99.90;;;;;;5030410;28;20935;-67
2023/08/25 10:05:05;;;;;;;11.27;4.57;;;22.10;99.90;;;;;;5042870;28;20456;-67
2023/08/25 10:07:34;;;;;;;9.63;4.73;;;22.20;99.90;;;;;;5050443;28;20492;-67
2023/08/25 10:10:02;;;;;;;10.83;3.60;;;22.30;99.90;;;;;;5050526;28;20538;-67
2023/08/25 10:12:34;;;;;;;9.53;4.50;;;22.40;99.90;;;;;;5050195;28;20444;-66
2023/08/25 10:15:05;;;;;;;9.27;4.03;;;22.50;99.90;;;;;;5050578;28;20558;-67
2023/08/25 10:17:36;;;;;;;10.77;4.40;;;22.40;99.90;;;;;;5049658;28;20506;-67
2023/08/25 10:20:09;;;;;;;11.87;5.27;;;22.40;99.90;;;;;;5049252;28;20484;-67
2023/08/25 10:22:41;;;;;;;10.00;4.70;;;22.40;99.90;;;;;;5030640;28;20494;-66
2023/08/25 10:25:10;;;;;;;8.90;3.90;;;22.40;99.90;;;;;;5031602;28;20453;-66
2023/08/25 10:27:41;;;;;;;10.37;4.10;;;22.60;99.90;;;;;;5032298;28;20983;-66
2023/08/25 10:30:09;;;;;;;8.73;3.90;;;22.70;99.90;;;;;;5032926;28;20471;-66
2023/08/25 10:32:51;;;;;;;11.20;3.83;;;22.80;99.90;;;;;;5032162;28;20452;-67
2023/08/25 10:35:41;;;;;;;9.83;3.83;;;22.70;99.90;;;;;;5030425;28;20449;-67
2023/08/25 10:38:39;;;;;;;9.07;3.20;;;22.70;99.90;;;;;;5030267;28;20449;-67
2023/08/25 10:41:18;;;;;;;8.07;3.30;;;22.70;99.90;;;;;;5030199;28;20441;-67
2023/08/25 10:43:51;;;;;;;9.20;3.30;;;22.60;99.90;;;;;;5030274;28;20440;-67
2023/08/25 10:46:20;;;;;;;9.37;3.27;;;22.50;99.90;;;;;;5030177;28;20827;-65
2023/08/25 10:49:11;;;;;;;10.07;4.10;;;22.60;99.90;;;;;;5030291;28;20495;-67
2023/08/25 10:51:39;;;;;;;9.47;3.40;;;22.70;99.90;;;;;;5030374;28;20472;-66
2023/08/25 10:54:17;;;;;;;8.40;3.30;;;22.80;99.90;;;;;;5038300;28;20448;-66
2023/08/25 10:56:47;;;;;;;10.40;3.80;;;22.70;99.90;;;;;;5049938;28;20464;-67
2023/08/25 10:59:17;;;;;;;8.53;3.40;;;22.70;99.90;;;;;;5049924;28;20480;-67
2023/08/25 11:01:57;;;;;;;8.47;3.20;;;22.80;99.90;;;;;;5050016;28;20535;-66
2023/08/25 11:04:27;;;;;;;10.53;3.70;;;22.70;99.90;;;;;;5050409;28;20921;-65
2023/08/25 11:06:56;;;;;;;9.07;3.37;;;22.50;99.90;;;;;;5050047;28;20466;-67
2023/08/25 11:09:35;;;;;;;9.87;3.97;;;22.50;99.90;;;;;;5048847;28;20463;-67
2023/08/25 11:12:07;;;;;;;9.20;4.10;;;22.50;99.90;;;;;;5029723;28;20498;-67
2023/08/25 11:14:38;;;;;;;11.03;3.70;;;22.60;99.90;;;;;;5029988;28;20955;-67
2023/08/25 11:17:07;;;;;;;10.27;4.00;;;22.80;99.90;;;;;;5030987;28;20461;-67
2023/08/25 11:19:39;;;;;;;10.00;3.57;;;23.00;99.90;;;;;;5029870;28;20480;-67
2023/08/25 11:22:10;;;;;;;9.13;3.73;;;23.00;99.90;;;;;;5030097;28;20441;-66
2023/08/25 11:24:39;;;;;;;8.60;3.53;;;23.10;99.90;;;;;;5029512;28;20531;-67
2023/08/25 11:27:07;;;;;;;8.70;3.70;;;23.10;99.90;;;;;;5043833;28;20518;-66
2023/08/25 11:29:37;;;;;;;8.90;3.67;;;23.20;99.90;;;;;;5052068;28;20960;-67
2023/08/25 11:32:05;;;;;;;9.50;3.60;;;23.40;99.90;;;;;;5053676;28;20454;-67
2023/08/25 11:34:33;;;;;;;8.43;3.43;;;23.50;99.90;;;;;;5053155;28;20436;-67
2023/08/25 11:37:01;;;;;;;8.77;3.40;;;23.80;99.90;;;;;;5053551;28;20460;-67
2023/08/25 11:39:29;;;;;;;12.03;4.00;;;24.10;99.90;;;;;;5053205;28;20507;-67
2023/08/25 11:41:57;;;;;;;9.30;3.87;;;24.40;99.90;;;;;;5051986;28;20447;-67
2023/08/25 11:44:26;;;;;;;9.23;3.87;;;24.50;99.90;;;;;;5053100;28;20866;-67
2023/08/25 11:46:55;;;;;;;9.53;3.83;;;24.80;99.90;;;;;;5053351;28;21031;-68
2023/08/25 11:49:28;;;;;;;11.10;4.20;;;25.00;99.90;;;;;;5053393;28;20475;-67
2023/08/25 11:51:56;;;;;;;8.93;3.73;;;25.00;99.90;;;;;;5034522;28;20548;-66
2023/08/25 11:54:24;;;;;;;9.17;4.00;;;25.00;99.90;;;;;;5032879;28;20453;-67
2023/08/25 11:56:53;;;;;;;9.63;4.27;;;24.90;99.90;;;;;;5032897;28;20468;-67
2023/08/25 11:59:22;;;;;;;8.90;3.90;;;24.80;99.90;;;;;;5033282;28;20522;-66
2023/08/25 12:01:50;;;;;;;10.43;4.50;;;24.70;99.90;;;;;;5037107;28;20465;-67
2023/08/25 12:04:24;;;;;;;10.20;4.37;;;24.50;99.90;;;;;;5033441;28;20995;-66
2023/08/25 12:06:53;;;;;;;14.97;5.53;;;24.40;99.90;;;;;;5033656;28;20523;-67
2023/08/25 12:09:23;;;;;;;9.37;4.20;;;24.30;99.90;;;;;;5033332;28;20452;-67
2023/08/25 12:11:51;;;;;;;9.93;4.97;;;24.30;99.90;;;;;;5033528;28;20511;-66
2023/08/25 12:14:26;;;;;;;10.17;4.67;;;24.20;99.90;;;;;;5033066;28;20543;-67
2023/08/25 12:16:55;;;;;;;9.30;4.20;;;24.10;99.90;;;;;;5034071;28;21089;-67
2023/08/25 12:19:26;;;;;;;10.97;4.53;;;24.10;99.90;;;;;;5033218;28;20495;-67
2023/08/25 12:21:56;;;;;;;9.20;4.53;;;24.10;99.90;;;;;;5032984;28;20523;-67
2023/08/25 12:24:24;;;;;;;9.03;4.50;;;24.10;99.90;;;;;;5032877;28;20441;-67
2023/08/25 12:26:52;;;;;;;9.83;4.50;;;24.10;99.90;;;;;;5032948;28;20552;-65
2023/08/25 12:29:21;;;;;;;9.10;4.77;;;24.00;99.90;;;;;;5033063;28;20440;-66
2023/08/25 12:31:48;;;;;;;10.07;4.93;;;24.00;99.90;;;;;;5033905;28;20440;-67
2023/08/25 12:34:16;;;;;;;9.67;5.17;;;24.00;99.90;;;;;;5032606;28;20495;-67
2023/08/25 12:36:46;;;;;;;9.70;4.57;;;24.00;99.90;;;;;;5033021;28;20559;-67
2023/08/25 12:39:14;;;;;;;9.83;4.97;;;23.90;99.90;;;;;;5032355;28;20492;-67
2023/08/25 12:41:42;;;;;;;10.37;4.70;;;23.80;99.90;;;;;;5032643;28;20472;-67
2023/08/25 12:44:10;;;;;;;10.80;4.13;;;23.90;99.90;;;;;;5032786;28;20453;-67
2023/08/25 12:46:37;;;;;;;8.87;3.93;;;24.00;99.90;;;;;;5032578;28;20456;-67
2023/08/25 12:49:06;;;;;;;11.47;4.77;;;24.00;99.90;;;;;;5033975;28;20452;-67
2023/08/25 12:51:33;;;;;;;9.80;4.77;;;24.10;99.90;;;;;;5033892;28;20433;-67
2023/08/25 12:54:14;;;;;;;10.77;4.93;;;24.10;99.90;;;;;;5035099;28;20451;-67